»·PEaware :: N729MN KSNA-L71

N729MN :: KSNA-L71

FLIGHT INFORMATION

Flight Status: Arrived
Operator: Privately registered:
United States
More flights under this callsign
Pilot: Jason C. (22717)
Aircraft: CESSNA 172 SKYHAWK
(C172)
More flights by this aircraft type
Origin: KSNA John Wayne-Orange Co
United States
Destination: L71 California City Mun
United States
More flights between these airports :: More routes between these airports
Route: KPOC
File this flight plan on PilotEdge
Remarks:
Altitude:
(Current/Filed)
7,500ft
Speed:
(Current/Filed)
90kts
Departed: 22-Jan-19 12:15 PM
Arrived: 22-Jan-19 01:20 PM
Distance/Time
Traveled:
89nm/1:05
Distance/Time
To Go:
Arrived

Flight Plot

Page will automatically refresh every two minutes.

Flight plan parsing failed; only flown route is shown


Map Options




Map Legend


Flown Route
Filed Route
Departure Airport
Arrival Airport
Navaid (VOR, NDB)
Fix

Horizontal Profiles

Position Reports

Time Latitude Longitude Heading Altitude Ground
Speed
22-Jan-19 11:56 33.675246 -117.871611 36 59ft 0kts
22-Jan-19 11:57 33.675246 -117.871611 36 59ft 0kts
22-Jan-19 11:58 33.675246 -117.871611 36 59ft 0kts
22-Jan-19 11:59 33.675246 -117.871611 36 59ft 0kts
22-Jan-19 12:00 33.675246 -117.871611 36 59ft 0kts
22-Jan-19 12:01 33.675246 -117.871611 36 59ft 0kts
22-Jan-19 12:02 33.675246 -117.871611 36 59ft 0kts
22-Jan-19 12:03 33.675246 -117.871611 36 59ft 0kts
22-Jan-19 12:04 33.675246 -117.871611 36 59ft 0kts
22-Jan-19 12:05 33.675246 -117.871611 36 59ft 0kts
22-Jan-19 12:06 33.675246 -117.871611 36 59ft 0kts
22-Jan-19 12:07 33.675257 -117.871601 39 59ft 1kts
22-Jan-19 12:08 33.672376 -117.872420 205 59ft 32kts
22-Jan-19 12:09 33.668283 -117.874568 124 59ft 0kts
22-Jan-19 12:10 33.668283 -117.874568 124 59ft 0kts
22-Jan-19 12:11 33.668283 -117.874568 124 59ft 0kts
22-Jan-19 12:12 33.668283 -117.874568 124 59ft 0kts
22-Jan-19 12:13 33.668298 -117.873513 26 59ft 8kts
22-Jan-19 12:14 33.683228 -117.865105 4 377ft 89kts
22-Jan-19 12:15 33.708305 -117.874212 340 938ft 97kts
22-Jan-19 12:16 33.733423 -117.884672 342 1577ft 92kts
22-Jan-19 12:17 33.758712 -117.891324 348 2169ft 94kts
22-Jan-19 12:18 33.782900 -117.883441 76 2168ft 122kts
22-Jan-19 12:20 33.791959 -117.855189 42 3036ft 76kts
22-Jan-19 12:21 33.815015 -117.838866 20 3135ft 107kts
22-Jan-19 12:22 33.842184 -117.830448 9 3319ft 97kts
22-Jan-19 12:23 33.869852 -117.824839 9 3323ft 98kts
22-Jan-19 12:24 33.896513 -117.819418 9 3325ft 96kts
22-Jan-19 12:25 33.924192 -117.813796 9 3169ft 101kts
22-Jan-19 12:26 33.951084 -117.808453 0 3165ft 96kts
22-Jan-19 12:27 33.977923 -117.812582 352 3172ft 100kts
22-Jan-19 12:28 34.005085 -117.821171 326 3169ft 103kts
22-Jan-19 12:29 34.022508 -117.847979 296 3169ft 104kts
22-Jan-19 12:30 34.035613 -117.879275 296 3169ft 104kts
22-Jan-19 12:31 34.048755 -117.910634 296 3169ft 104kts
22-Jan-19 12:32 34.061881 -117.941918 296 3246ft 103kts
22-Jan-19 12:33 34.074989 -117.973062 296 3647ft 103kts
22-Jan-19 12:34 34.088087 -118.004149 296 4048ft 103kts
22-Jan-19 12:35 34.101427 -118.035816 297 4238ft 106kts
22-Jan-19 12:36 34.113706 -118.064962 297 4238ft 101kts
22-Jan-19 12:37 34.132909 -118.087097 321 4624ft 94kts
22-Jan-19 12:37 34.150227 -118.103570 321 5043ft 94kts
22-Jan-19 12:38 34.170930 -118.123251 321 5545ft 94kts
22-Jan-19 12:39 34.191574 -118.142857 321 6048ft 93kts
22-Jan-19 12:40 34.211940 -118.162179 321 6547ft 92kts
22-Jan-19 12:41 34.231889 -118.181084 321 7044ft 89kts
22-Jan-19 12:42 34.251382 -118.199529 321 7542ft 88kts
22-Jan-19 12:43 34.270456 -118.217549 321 8038ft 86kts
22-Jan-19 12:45 34.297341 -118.219252 11 8435ft 101kts
22-Jan-19 12:45 34.321045 -118.213512 11 8419ft 98kts
22-Jan-19 12:46 34.346813 -118.207262 11 8422ft 91kts
22-Jan-19 12:47 34.371683 -118.201223 11 8423ft 90kts
22-Jan-19 12:48 34.399599 -118.194459 11 8118ft 100kts
22-Jan-19 12:49 34.425434 -118.188151 11 8120ft 90kts
22-Jan-19 12:50 34.450215 -118.182096 11 8122ft 90kts
22-Jan-19 12:51 34.474968 -118.176036 11 8122ft 90kts
22-Jan-19 12:52 34.499753 -118.169956 11 8122ft 90kts
22-Jan-19 12:53 34.524579 -118.163853 11 8122ft 90kts
22-Jan-19 12:54 34.549558 -118.158885 4 8121ft 90kts
22-Jan-19 12:55 34.574851 -118.156813 3 8122ft 90kts
22-Jan-19 12:56 34.600226 -118.154724 4 8122ft 90kts
22-Jan-19 12:57 34.625488 -118.153170 357 8121ft 90kts
22-Jan-19 12:59 34.654969 -118.154672 357 8122ft 90kts
22-Jan-19 12:59 34.676117 -118.155744 357 8122ft 90kts
22-Jan-19 13:00 34.701447 -118.157017 357 8122ft 90kts
22-Jan-19 13:01 34.726668 -118.158274 357 8122ft 90kts
22-Jan-19 13:02 34.751893 -118.159519 357 8121ft 90kts
22-Jan-19 13:03 34.777163 -118.160761 357 8122ft 90kts
22-Jan-19 13:04 34.802158 -118.157947 7 8122ft 90kts
22-Jan-19 13:05 34.827204 -118.153997 7 8122ft 90kts
22-Jan-19 13:06 34.852196 -118.150044 7 8121ft 90kts
22-Jan-19 13:07 34.877113 -118.146090 7 8122ft 90kts
22-Jan-19 13:08 34.902083 -118.142116 7 8122ft 90kts
22-Jan-19 13:09 34.927064 -118.138128 7 8122ft 90kts
22-Jan-19 13:10 34.952244 -118.134124 7 7787ft 102kts
22-Jan-19 13:11 34.982841 -118.129270 7 7006ft 115kts
22-Jan-19 13:12 35.014010 -118.118959 22 6192ft 118kts
22-Jan-19 13:13 35.042005 -118.102337 34 5179ft 109kts
22-Jan-19 13:14 35.066952 -118.081628 34 4173ft 107kts
22-Jan-19 13:15 35.091203 -118.064932 18 3548ft 90kts
22-Jan-19 13:16 35.116332 -118.061270 5 3292ft 88kts
22-Jan-19 13:18 35.142746 -118.052762 55 2979ft 80kts
22-Jan-19 13:18 35.147937 -118.032667 74 2635ft 70kts
22-Jan-19 13:19 35.150839 -118.016307 165 2427ft 9kts
22-Jan-19 13:21 35.150347 -118.015323 92 2425ft 0kts

Navigation Log

Ident Type
Flight plan parsing failed, navigation log unavailable